createdAt,value
2016-06-28T00:00:55.990Z,1010.85
2016-06-28T00:04:09.706Z,1010.85
2016-06-28T00:07:23.317Z,1010.85
2016-06-28T00:10:37.076Z,1010.85
2016-06-28T00:13:54.171Z,1010.83
2016-06-28T00:16:59.066Z,1010.77
2016-06-28T00:20:10.473Z,1010.81
2016-06-28T00:23:22.418Z,1010.81
2016-06-28T00:26:36.068Z,1010.81
2016-06-28T00:29:53.568Z,1010.77
2016-06-28T00:32:58.388Z,1010.77
2016-06-28T00:36:11.907Z,1010.87
2016-06-28T00:39:25.562Z,1010.87
2016-06-28T00:42:39.321Z,1010.87
2016-06-28T00:45:57.024Z,1010.87
2016-06-28T00:49:00.922Z,1010.87
2016-06-28T00:52:15.780Z,1010.83
2016-06-28T00:55:29.493Z,1010.83
2016-06-28T00:58:41.428Z,1010.75
2016-06-28T01:01:59.135Z,1010.69
2016-06-28T01:05:04.112Z,1010.67
2016-06-28T01:08:18.036Z,1010.57
2016-06-28T01:11:30.734Z,1010.51
2016-06-28T01:14:49.598Z,1010.53
2016-06-28T01:17:58.560Z,1010.61
2016-06-28T01:21:03.582Z,1010.57
2016-06-28T01:24:17.444Z,1010.59
2016-06-28T01:27:31.236Z,1010.71
2016-06-28T01:30:44.487Z,1010.61
2016-06-28T01:33:58.139Z,1010.55
2016-06-28T01:37:11.871Z,1010.61
2016-06-28T01:40:25.631Z,1010.63
2016-06-28T01:43:39.362Z,1010.61
2016-06-28T01:46:57.216Z,1010.57
2016-06-28T01:50:02.284Z,1010.71
2016-06-28T01:53:15.967Z,1010.65
2016-06-28T01:56:29.511Z,1010.71
2016-06-28T01:59:43.281Z,1010.67
2016-06-28T02:02:55.278Z,1010.59
2016-06-28T02:06:08.620Z,1010.71
2016-06-28T02:09:22.048Z,1010.65
2016-06-28T02:12:35.565Z,1010.65
2016-06-28T02:15:53.146Z,1010.69
2016-06-28T02:18:58.178Z,1010.75
2016-06-28T02:22:11.728Z,1010.69
2016-06-28T02:25:24.546Z,1010.67
2016-06-28T02:28:38.376Z,1010.69
2016-06-28T02:31:55.911Z,1010.63
2016-06-28T02:35:00.825Z,1010.75
2016-06-28T02:38:14.673Z,1010.69
2016-06-28T02:41:28.323Z,1010.79
2016-06-28T02:44:42.109Z,1010.83
2016-06-28T02:47:55.683Z,1010.79
2016-06-28T02:51:09.413Z,1010.79
2016-06-28T02:54:23.122Z,1010.75
2016-06-28T02:57:36.818Z,1010.79
2016-06-28T03:00:54.318Z,1010.79
2016-06-28T03:03:59.269Z,1010.75
2016-06-28T03:07:13.033Z,1010.75
2016-06-28T03:10:26.523Z,1010.73
2016-06-28T03:13:40.187Z,1010.77
2016-06-28T03:16:57.692Z,1010.77
2016-06-28T03:20:02.606Z,1010.75
2016-06-28T03:23:15.761Z,1010.77
2016-06-28T03:26:29.598Z,1010.63
2016-06-28T03:29:43.269Z,1010.61
2016-06-28T03:32:56.994Z,1010.67
2016-06-28T03:36:10.857Z,1010.69
2016-06-28T03:39:24.565Z,1010.79
2016-06-28T03:42:38.350Z,1010.85
2016-06-28T03:45:55.911Z,1010.79
2016-06-28T03:49:01.026Z,1010.73
2016-06-28T03:52:14.623Z,1010.63
2016-06-28T03:55:28.443Z,1010.71
2016-06-28T03:58:42.349Z,1010.75
2016-06-28T04:01:56.192Z,1010.75
2016-06-28T04:05:09.762Z,1010.75
2016-06-28T04:08:22.326Z,1010.75
2016-06-28T04:11:37.246Z,1010.71
2016-06-28T04:14:54.937Z,1010.79
2016-06-28T04:17:59.878Z,1010.73
2016-06-28T04:21:13.534Z,1010.77
2016-06-28T04:24:27.276Z,1010.77
2016-06-28T04:27:40.989Z,1010.73
2016-06-28T04:30:58.754Z,1010.83
2016-06-28T04:34:03.877Z,1010.67
2016-06-28T04:37:17.427Z,1010.77
2016-06-28T04:40:30.333Z,1010.69
2016-06-28T04:43:40.640Z,1010.71
2016-06-28T04:46:58.298Z,1010.71
2016-06-28T04:50:03.537Z,1010.61
2016-06-28T04:53:16.816Z,1010.59
2016-06-28T04:56:30.610Z,1010.57
2016-06-28T04:59:44.401Z,1010.61
2016-06-28T05:02:58.255Z,1010.57
2016-06-28T05:06:12.243Z,1010.45
2016-06-28T05:09:25.959Z,1010.53
2016-06-28T05:12:39.880Z,1010.47
2016-06-28T05:15:56.253Z,1010.49
2016-06-28T05:19:01.467Z,1010.39
2016-06-28T05:22:15.107Z,1010.51
2016-06-28T05:25:29.142Z,1010.47
2016-06-28T05:28:41.276Z,1010.53
2016-06-28T05:31:59.199Z,1010.55
2016-06-28T05:35:04.279Z,1010.51
2016-06-28T05:38:17.870Z,1010.51
2016-06-28T05:41:31.610Z,1010.61
2016-06-28T05:44:45.366Z,1010.63
2016-06-28T05:47:58.534Z,1010.65
2016-06-28T05:51:11.487Z,1010.65
2016-06-28T05:54:25.115Z,1010.65
2016-06-28T05:57:36.657Z,1010.73
2016-06-28T06:00:54.429Z,1010.67
2016-06-28T06:03:59.504Z,1010.81
2016-06-28T06:07:11.938Z,1010.75
2016-06-28T06:10:25.649Z,1010.77
2016-06-28T06:13:39.505Z,1010.73
2016-06-28T06:16:57.522Z,1010.79
2016-06-28T06:20:02.784Z,1010.81
2016-06-28T06:23:16.339Z,1010.83
2016-06-28T06:26:27.902Z,1010.87
2016-06-28T06:29:41.907Z,1010.93
2016-06-28T06:32:59.747Z,1010.85
2016-06-28T06:36:04.939Z,1010.89
2016-06-28T06:39:18.781Z,1010.93
2016-06-28T06:42:32.691Z,1010.87
2016-06-28T06:45:45.234Z,1010.93
2016-06-28T06:48:58.595Z,1010.83
2016-06-28T06:52:12.912Z,1010.69
2016-06-28T06:55:27.285Z,1010.79
2016-06-28T06:58:41.534Z,1010.77
2016-06-28T07:01:56.452Z,1010.55
2016-06-28T07:05:02.079Z,1010.51
2016-06-28T07:08:16.578Z,1010.61
2016-06-28T07:11:30.594Z,1010.65
2016-06-28T07:14:44.549Z,1010.71
2016-06-28T07:17:58.510Z,1010.87
2016-06-28T07:21:12.194Z,1011.11
2016-06-28T07:24:25.910Z,1011.21
2016-06-28T07:27:38.744Z,1010.77
2016-06-28T07:30:55.499Z,1011.17
2016-06-28T07:34:00.983Z,1011.35
2016-06-28T07:37:11.710Z,1011.29
2016-06-28T07:40:25.682Z,1011.31
2016-06-28T07:43:39.817Z,1010.77
2016-06-28T07:46:58.174Z,1011.21
2016-06-28T07:50:03.813Z,1011.49
2016-06-28T07:53:17.999Z,1011.53
2016-06-28T07:56:30.800Z,1011.51
2016-06-28T07:59:44.700Z,1011.57
2016-06-28T08:02:58.755Z,1011.31
2016-06-28T08:06:09.928Z,1011.07
2016-06-28T08:09:23.047Z,1010.95
2016-06-28T08:12:38.205Z,1011.37
2016-06-28T08:15:56.895Z,1011.47
2016-06-28T08:19:02.859Z,1011.41
2016-06-28T08:22:17.199Z,1011.09
2016-06-28T08:25:31.800Z,1011.41
2016-06-28T08:28:45.678Z,1011.17
2016-06-28T08:31:58.555Z,1011.39
2016-06-28T08:35:11.591Z,1011.35
2016-06-28T08:38:25.994Z,1010.99
2016-06-28T08:41:40.854Z,1011.19
2016-06-28T08:44:59.401Z,1011.45
2016-06-28T08:48:05.747Z,1011.11
2016-06-28T08:51:21.122Z,1011.09
2016-06-28T08:54:36.387Z,1011.05
2016-06-28T08:57:55.481Z,1011.33
2016-06-28T09:01:01.967Z,1011.35
2016-06-28T09:04:13.207Z,1011.27
2016-06-28T09:07:27.862Z,1011.25
2016-06-28T09:10:42.639Z,1011.57
2016-06-28T09:13:56.966Z,1011.43
2016-06-28T09:17:11.748Z,1011.57
2016-06-28T09:20:26.210Z,1011.21
2016-06-28T09:23:41.368Z,1011.33
2016-06-28T09:26:56.685Z,1011.21
2016-06-28T09:30:11.797Z,1011.45
2016-06-28T09:33:26.691Z,1011.39
2016-06-28T09:36:41.237Z,1011.47
2016-06-28T09:39:59.909Z,1011.43
2016-06-28T09:43:04.946Z,1011.59
2016-06-28T09:46:20.270Z,1011.7
2016-06-28T09:49:34.211Z,1011.7
2016-06-28T09:52:52.325Z,1011.64
2016-06-28T09:55:57.755Z,1011.7
2016-06-28T09:59:10.668Z,1011.8
2016-06-28T10:02:24.926Z,1011.66
2016-06-28T10:05:39.579Z,1011.76
2016-06-28T10:08:56.321Z,1011.7
2016-06-28T10:12:02.049Z,1011.64
2016-06-28T10:15:16.311Z,1011.8
2016-06-28T10:18:30.511Z,1011.82
2016-06-28T10:21:44.535Z,1011.68
2016-06-28T10:24:58.771Z,1011.82
2016-06-28T10:28:12.907Z,1011.72
2016-06-28T10:31:26.941Z,1011.78
2016-06-28T10:34:41.217Z,1011.64
2016-06-28T10:37:59.666Z,1011.61
2016-06-28T10:41:05.442Z,1011.72
2016-06-28T10:44:19.827Z,1011.76
2016-06-28T10:47:34.131Z,1011.63
2016-06-28T10:50:52.471Z,1011.72
2016-06-28T10:53:57.937Z,1011.78
2016-06-28T10:57:12.278Z,1011.66
2016-06-28T11:00:26.584Z,1011.66
2016-06-28T11:03:40.849Z,1011.68
2016-06-28T11:06:58.650Z,1011.63
2016-06-28T11:10:04.273Z,1011.59
2016-06-28T11:13:18.376Z,1011.59
2016-06-28T11:16:32.409Z,1011.43
2016-06-28T11:19:50.785Z,1011.57
2016-06-28T11:23:00.111Z,1011.51
2016-06-28T11:26:05.468Z,1011.37
2016-06-28T11:29:19.630Z,1011.37
2016-06-28T11:32:31.318Z,1011.39
2016-06-28T11:35:44.849Z,1011.39
2016-06-28T11:38:58.835Z,1011.33
2016-06-28T11:42:13.089Z,1011.33
2016-06-28T11:45:27.112Z,1011.27
2016-06-28T11:48:40.838Z,1011.15
2016-06-28T11:51:58.910Z,1011.13
2016-06-28T11:55:03.467Z,1011.25
2016-06-28T11:58:18.391Z,1011.21
2016-06-28T12:01:32.721Z,1011.21
2016-06-28T12:04:45.870Z,1011.15
2016-06-28T12:07:59.794Z,1011.17
2016-06-28T12:11:14.046Z,1011.05
2016-06-28T12:14:28.106Z,1011.03
2016-06-28T12:17:38.150Z,1011.19
2016-06-28T12:20:57.287Z,1011.11
2016-06-28T12:24:02.929Z,1011.03
2016-06-28T12:27:15.106Z,1011.05
2016-06-28T12:30:27.447Z,1011.05
2016-06-28T12:33:41.734Z,1010.93
2016-06-28T12:36:59.765Z,1010.87
2016-06-28T12:40:04.235Z,1010.89
2016-06-28T12:43:19.367Z,1010.87
2016-06-28T12:46:33.842Z,1010.83
2016-06-28T12:49:52.163Z,1010.75
2016-06-28T12:52:57.719Z,1010.77
2016-06-28T12:56:11.989Z,1010.77
2016-06-28T12:59:26.146Z,1010.71
2016-06-28T13:02:37.529Z,1010.73
2016-06-28T13:05:55.499Z,1010.71
2016-06-28T13:09:01.161Z,1010.77
2016-06-28T13:12:15.225Z,1010.71
2016-06-28T13:15:29.486Z,1010.65
2016-06-28T13:18:43.890Z,1010.75
2016-06-28T13:21:58.010Z,1010.71
2016-06-28T13:25:12.247Z,1010.65
2016-06-28T13:28:26.521Z,1010.71
2016-06-28T13:31:40.961Z,1010.71
2016-06-28T13:34:58.856Z,1010.67
2016-06-28T13:38:04.582Z,1010.59
2016-06-28T13:41:18.850Z,1010.55
2016-06-28T13:44:33.189Z,1010.51
2016-06-28T13:47:51.488Z,1010.45
2016-06-28T13:50:57.164Z,1010.51
2016-06-28T13:54:09.713Z,1010.57
2016-06-28T13:57:23.980Z,1010.43
2016-06-28T14:00:38.443Z,1010.45
2016-06-28T14:03:55.562Z,1010.47
2016-06-28T14:07:01.172Z,1010.43
2016-06-28T14:10:15.297Z,1010.43
2016-06-28T14:13:29.588Z,1010.39
2016-06-28T14:16:43.920Z,1010.43
2016-06-28T14:19:58.223Z,1010.37
2016-06-28T14:23:09.497Z,1010.33
2016-06-28T14:26:23.763Z,1010.25
2016-06-28T14:29:38.043Z,1010.33
2016-06-28T14:32:53.278Z,1010.29
2016-06-28T14:35:59.010Z,1010.43
2016-06-28T14:39:10.283Z,1010.45
2016-06-28T14:42:24.231Z,1010.33
2016-06-28T14:45:37.292Z,1010.33
2016-06-28T14:48:56.247Z,1010.35
2016-06-28T14:52:01.871Z,1010.35
2016-06-28T14:55:16.139Z,1010.37
2016-06-28T14:58:30.506Z,1010.35
2016-06-28T15:01:44.721Z,1010.31
2016-06-28T15:04:59.079Z,1010.25
2016-06-28T15:08:13.331Z,1010.25
2016-06-28T15:11:27.718Z,1010.25
2016-06-28T15:14:42.037Z,1010.25
2016-06-28T15:18:00.385Z,1010.33
2016-06-28T15:21:05.978Z,1010.27
2016-06-28T15:24:20.270Z,1010.29
2016-06-28T15:27:34.793Z,1010.33
2016-06-28T15:30:52.771Z,1010.31
2016-06-28T15:33:58.250Z,1010.35
2016-06-28T15:37:12.004Z,1010.29
2016-06-28T15:40:25.910Z,1010.35
2016-06-28T15:43:38.379Z,1010.29
2016-06-28T15:46:56.541Z,1010.33
2016-06-28T15:50:02.095Z,1010.29
2016-06-28T15:53:13.636Z,1010.29
2016-06-28T15:56:27.959Z,1010.31
2016-06-28T15:59:41.218Z,1010.31
2016-06-28T16:02:59.266Z,1010.33
2016-06-28T16:06:04.899Z,1010.25
2016-06-28T16:09:19.205Z,1010.33
2016-06-28T16:12:33.101Z,1010.25
2016-06-28T16:15:51.136Z,1010.27
2016-06-28T16:19:00.652Z,1010.25
2016-06-28T16:22:06.103Z,1010.23
2016-06-28T16:25:18.087Z,1010.23
2016-06-28T16:28:29.097Z,1010.25
2016-06-28T16:31:42.946Z,1010.25
2016-06-28T16:35:00.865Z,1010.19
2016-06-28T16:38:06.459Z,1010.19
2016-06-28T16:41:20.624Z,1010.17
2016-06-28T16:44:34.689Z,1010.25
2016-06-28T16:47:52.686Z,1010.11
2016-06-28T16:50:58.210Z,1010.03
2016-06-28T16:54:08.861Z,1010.09
2016-06-28T16:57:24.330Z,1010.13
2016-06-28T17:00:38.375Z,1010.11
2016-06-28T17:03:55.497Z,1010.11
2016-06-28T17:07:00.847Z,1010.11
2016-06-28T17:10:15.000Z,1010.01
2016-06-28T17:13:29.407Z,1010.07
2016-06-28T17:16:41.203Z,1010.01
2016-06-28T17:19:59.286Z,1010.07
2016-06-28T17:23:04.748Z,1010.01
2016-06-28T17:26:16.690Z,1010.05
2016-06-28T17:29:30.998Z,1010.01
2016-06-28T17:32:45.452Z,1009.99
2016-06-28T17:36:00.566Z,1009.99
2016-06-28T17:39:06.022Z,1009.99
2016-06-28T17:42:17.648Z,1009.95
2016-06-28T17:45:31.777Z,1009.95
2016-06-28T17:48:45.852Z,1009.89
2016-06-28T17:51:59.672Z,1009.97
2016-06-28T17:55:13.690Z,1010.05
2016-06-28T17:58:27.715Z,1010.03
2016-06-28T18:01:39.948Z,1009.97
2016-06-28T18:04:55.650Z,1009.95
2016-06-28T18:08:01.005Z,1009.99
2016-06-28T18:11:14.820Z,1009.95
2016-06-28T18:14:28.942Z,1009.93
2016-06-28T18:17:42.967Z,1009.87
2016-06-28T18:20:58.413Z,1009.89
2016-06-28T18:24:03.774Z,1009.89
2016-06-28T18:27:16.654Z,1009.89
2016-06-28T18:30:31.803Z,1009.8
2016-06-28T18:33:45.720Z,1009.93
2016-06-28T18:36:59.654Z,1009.93
2016-06-28T18:40:13.761Z,1009.84
2016-06-28T18:43:25.033Z,1009.84
2016-06-28T18:46:37.489Z,1009.84
2016-06-28T18:49:55.087Z,1009.84
2016-06-28T18:52:59.265Z,1009.74
2016-06-28T18:56:14.291Z,1009.7
2016-06-28T18:59:28.393Z,1009.8
2016-06-28T19:02:42.019Z,1009.68
2016-06-28T19:05:59.987Z,1009.68
2016-06-28T19:09:05.210Z,1009.7
2016-06-28T19:12:19.148Z,1009.78
2016-06-28T19:15:32.727Z,1009.7
2016-06-28T19:18:46.460Z,1009.78
2016-06-28T19:22:00.403Z,1009.8
2016-06-28T19:25:14.350Z,1009.78
2016-06-28T19:28:28.301Z,1009.76
2016-06-28T19:31:42.187Z,1009.74
2016-06-28T19:34:59.507Z,1009.78
2016-06-28T19:38:04.660Z,1009.78
2016-06-28T19:41:18.503Z,1009.82
2016-06-28T19:44:32.370Z,1009.8
2016-06-28T19:47:46.231Z,1009.82
2016-06-28T19:50:59.855Z,1009.8
2016-06-28T19:54:13.509Z,1009.84
2016-06-28T19:57:26.783Z,1009.8
2016-06-28T20:00:40.404Z,1009.82
2016-06-28T20:03:57.260Z,1009.84
2016-06-28T20:07:02.247Z,1009.89
2016-06-28T20:10:14.746Z,1009.89
2016-06-28T20:13:29.614Z,1009.84
2016-06-28T20:16:43.267Z,1009.89
2016-06-28T20:20:00.902Z,1009.76
2016-06-28T20:23:05.379Z,1009.87
2016-06-28T20:26:18.588Z,1009.85
2016-06-28T20:29:31.947Z,1009.74
2016-06-28T20:32:45.309Z,1009.72
2016-06-28T20:35:58.526Z,1009.66
2016-06-28T20:39:11.546Z,1009.76
2016-06-28T20:42:24.835Z,1009.7
2016-06-28T20:45:38.032Z,1009.78
2016-06-28T20:48:52.981Z,1009.66
2016-06-28T20:52:01.385Z,1009.6
2016-06-28T20:55:05.613Z,1009.72
2016-06-28T20:58:18.796Z,1009.66
2016-06-28T21:01:31.947Z,1009.7
2016-06-28T21:04:45.125Z,1009.72
2016-06-28T21:08:01.986Z,1009.74
2016-06-28T21:11:06.278Z,1009.74
2016-06-28T21:14:15.254Z,1009.7
2016-06-28T21:17:28.138Z,1009.68
2016-06-28T21:20:41.060Z,1009.64
2016-06-28T21:23:55.358Z,1009.52
2016-06-28T21:26:59.531Z,1009.46
2016-06-28T21:30:12.052Z,1009.56
2016-06-28T21:33:24.696Z,1009.52
2016-06-28T21:36:37.220Z,1009.54
2016-06-28T21:39:53.377Z,1009.44
2016-06-28T21:43:01.136Z,1009.42
2016-06-28T21:46:04.724Z,1009.46
2016-06-28T21:49:17.506Z,1009.38
2016-06-28T21:52:30.167Z,1009.36
2016-06-28T21:55:39.976Z,1009.46
2016-06-28T21:58:52.789Z,1009.26
2016-06-28T22:02:00.471Z,1009.3
2016-06-28T22:05:04.095Z,1009.28
2016-06-28T22:08:16.481Z,1009.2
2016-06-28T22:11:26.755Z,1009.22
2016-06-28T22:14:38.710Z,1009.2
2016-06-28T22:17:55.102Z,1009.16
2016-06-28T22:20:58.827Z,1009.1
2016-06-28T22:24:11.552Z,1009.1
2016-06-28T22:27:24.127Z,1009.08
2016-06-28T22:30:36.914Z,1009.02
2016-06-28T22:33:47.621Z,1009.02
2016-06-28T22:37:00.440Z,1009.08
2016-06-28T22:40:13.085Z,1008.94
2016-06-28T22:43:25.872Z,1009.02
2016-06-28T22:46:38.599Z,1009
2016-06-28T22:49:54.952Z,1008.98
2016-06-28T22:53:02.601Z,1009
2016-06-28T22:56:06.162Z,1008.9
2016-06-28T22:59:16.016Z,1008.84
2016-06-28T23:02:25.256Z,1008.84
2016-06-28T23:05:37.528Z,1008.76
2016-06-28T23:08:48.015Z,1008.82
2016-06-28T23:12:00.448Z,1008.76
2016-06-28T23:15:12.751Z,1008.72
2016-06-28T23:18:24.699Z,1008.7
2016-06-28T23:21:36.834Z,1008.7
2016-06-28T23:24:48.389Z,1008.72
2016-06-28T23:28:01.011Z,1008.7
2016-06-28T23:31:13.654Z,1008.6
2016-06-28T23:34:26.422Z,1008.54
2016-06-28T23:37:39.102Z,1008.48
2016-06-28T23:40:55.310Z,1008.36
2016-06-28T23:44:03.032Z,1008.38
2016-06-28T23:47:06.390Z,1008.43
2016-06-28T23:50:18.662Z,1008.36
2016-06-28T23:53:28.901Z,1008.36
2016-06-28T23:56:41.242Z,1008.43
2016-06-28T23:59:56.697Z,1008.28
